sensor_id;sensor_type;location;lat;lon;timestamp;P1;durP1;ratioP1;P2;durP2;ratioP2
10596;SDS011;5346;48.766;8.674;2024-01-25T00:00:09;24.40;;;4.70;;
10596;SDS011;5346;48.766;8.674;2024-01-25T00:02:51;23.70;;;4.40;;
10596;SDS011;5346;48.766;8.674;2024-01-25T00:05:18;19.43;;;4.70;;
10596;SDS011;5346;48.766;8.674;2024-01-25T00:07:47;27.83;;;4.30;;
10596;SDS011;5346;48.766;8.674;2024-01-25T00:10:22;25.37;;;4.63;;
10596;SDS011;5346;48.766;8.674;2024-01-25T00:12:50;23.30;;;4.17;;
10596;SDS011;5346;48.766;8.674;2024-01-25T00:15:25;17.47;;;4.40;;
10596;SDS011;5346;48.766;8.674;2024-01-25T00:17:59;22.77;;;4.30;;
10596;SDS011;5346;48.766;8.674;2024-01-25T00:20:34;27.03;;;4.87;;
10596;SDS011;5346;48.766;8.674;2024-01-25T00:23:02;29.47;;;5.10;;
10596;SDS011;5346;48.766;8.674;2024-01-25T00:25:37;27.47;;;4.47;;
10596;SDS011;5346;48.766;8.674;2024-01-25T00:28:11;26.67;;;4.00;;
10596;SDS011;5346;48.766;8.674;2024-01-25T00:30:46;26.57;;;4.20;;
10596;SDS011;5346;48.766;8.674;2024-01-25T00:33:21;23.73;;;5.20;;
10596;SDS011;5346;48.766;8.674;2024-01-25T00:35:57;19.73;;;4.40;;
10596;SDS011;5346;48.766;8.674;2024-01-25T00:38:32;16.70;;;4.07;;
10596;SDS011;5346;48.766;8.674;2024-01-25T00:41:08;21.90;;;5.07;;
10596;SDS011;5346;48.766;8.674;2024-01-25T00:43:36;23.90;;;4.33;;
10596;SDS011;5346;48.766;8.674;2024-01-25T00:46:04;17.20;;;3.80;;
10596;SDS011;5346;48.766;8.674;2024-01-25T00:48:42;21.17;;;4.27;;
10596;SDS011;5346;48.766;8.674;2024-01-25T00:51:14;23.40;;;4.43;;
10596;SDS011;5346;48.766;8.674;2024-01-25T00:54:00;15.03;;;4.07;;
10596;SDS011;5346;48.766;8.674;2024-01-25T00:56:35;27.00;;;4.93;;
10596;SDS011;5346;48.766;8.674;2024-01-25T00:59:10;21.07;;;4.70;;
10596;SDS011;5346;48.766;8.674;2024-01-25T01:01:48;23.00;;;4.63;;
10596;SDS011;5346;48.766;8.674;2024-01-25T01:04:20;20.63;;;4.17;;
10596;SDS011;5346;48.766;8.674;2024-01-25T01:06:55;19.17;;;4.23;;
10596;SDS011;5346;48.766;8.674;2024-01-25T01:09:23;22.13;;;4.47;;
10596;SDS011;5346;48.766;8.674;2024-01-25T01:11:57;22.73;;;4.37;;
10596;SDS011;5346;48.766;8.674;2024-01-25T01:14:25;17.80;;;4.40;;
10596;SDS011;5346;48.766;8.674;2024-01-25T01:17:00;18.63;;;4.47;;
10596;SDS011;5346;48.766;8.674;2024-01-25T01:19:27;25.87;;;4.37;;
10596;SDS011;5346;48.766;8.674;2024-01-25T01:22:02;26.10;;;5.00;;
10596;SDS011;5346;48.766;8.674;2024-01-25T01:24:36;21.67;;;3.73;;
10596;SDS011;5346;48.766;8.674;2024-01-25T01:27:04;19.67;;;3.93;;
10596;SDS011;5346;48.766;8.674;2024-01-25T01:29:38;20.43;;;4.27;;
10596;SDS011;5346;48.766;8.674;2024-01-25T01:32:05;20.63;;;4.40;;
10596;SDS011;5346;48.766;8.674;2024-01-25T01:34:33;15.70;;;3.97;;
10596;SDS011;5346;48.766;8.674;2024-01-25T01:37:08;22.00;;;4.30;;
10596;SDS011;5346;48.766;8.674;2024-01-25T01:39:43;23.40;;;4.70;;
10596;SDS011;5346;48.766;8.674;2024-01-25T01:42:11;18.40;;;3.63;;
10596;SDS011;5346;48.766;8.674;2024-01-25T01:44:38;22.90;;;3.90;;
10596;SDS011;5346;48.766;8.674;2024-01-25T01:47:14;19.40;;;4.47;;
10596;SDS011;5346;48.766;8.674;2024-01-25T01:49:48;19.97;;;4.07;;
10596;SDS011;5346;48.766;8.674;2024-01-25T01:52:23;26.27;;;4.93;;
10596;SDS011;5346;48.766;8.674;2024-01-25T01:54:57;20.33;;;4.07;;
10596;SDS011;5346;48.766;8.674;2024-01-25T01:57:36;28.30;;;3.90;;
10596;SDS011;5346;48.766;8.674;2024-01-25T02:00:12;24.60;;;4.53;;
10596;SDS011;5346;48.766;8.674;2024-01-25T02:02:50;21.87;;;4.80;;
10596;SDS011;5346;48.766;8.674;2024-01-25T02:05:18;21.73;;;3.90;;
10596;SDS011;5346;48.766;8.674;2024-01-25T02:07:52;20.90;;;3.83;;
10596;SDS011;5346;48.766;8.674;2024-01-25T02:10:27;18.37;;;3.77;;
10596;SDS011;5346;48.766;8.674;2024-01-25T02:13:02;16.73;;;4.00;;
10596;SDS011;5346;48.766;8.674;2024-01-25T02:15:30;23.73;;;4.57;;
10596;SDS011;5346;48.766;8.674;2024-01-25T02:17:58;19.50;;;4.60;;
10596;SDS011;5346;48.766;8.674;2024-01-25T02:20:33;19.33;;;5.03;;
10596;SDS011;5346;48.766;8.674;2024-01-25T02:23:00;25.90;;;4.67;;
10596;SDS011;5346;48.766;8.674;2024-01-25T02:25:29;19.70;;;3.57;;
10596;SDS011;5346;48.766;8.674;2024-01-25T02:28:03;26.07;;;4.43;;
10596;SDS011;5346;48.766;8.674;2024-01-25T02:30:31;21.47;;;4.43;;
10596;SDS011;5346;48.766;8.674;2024-01-25T02:33:06;21.13;;;4.47;;
10596;SDS011;5346;48.766;8.674;2024-01-25T02:35:35;27.77;;;4.57;;
10596;SDS011;5346;48.766;8.674;2024-01-25T02:38:10;20.53;;;4.37;;
10596;SDS011;5346;48.766;8.674;2024-01-25T02:40:37;26.73;;;5.13;;
10596;SDS011;5346;48.766;8.674;2024-01-25T02:43:12;20.50;;;4.20;;
10596;SDS011;5346;48.766;8.674;2024-01-25T02:45:39;25.47;;;4.77;;
10596;SDS011;5346;48.766;8.674;2024-01-25T02:48:14;20.47;;;4.00;;
10596;SDS011;5346;48.766;8.674;2024-01-25T02:50:42;23.57;;;4.40;;
10596;SDS011;5346;48.766;8.674;2024-01-25T02:53:10;19.70;;;3.90;;
10596;SDS011;5346;48.766;8.674;2024-01-25T02:55:44;31.67;;;4.60;;
10596;SDS011;5346;48.766;8.674;2024-01-25T02:58:18;30.17;;;4.53;;
10596;SDS011;5346;48.766;8.674;2024-01-25T03:00:52;24.53;;;4.43;;
10596;SDS011;5346;48.766;8.674;2024-01-25T03:03:19;25.43;;;4.20;;
10596;SDS011;5346;48.766;8.674;2024-01-25T03:05:56;23.37;;;5.17;;
10596;SDS011;5346;48.766;8.674;2024-01-25T03:08:23;17.67;;;4.03;;
10596;SDS011;5346;48.766;8.674;2024-01-25T03:10:58;23.90;;;4.80;;
10596;SDS011;5346;48.766;8.674;2024-01-25T03:13:33;23.30;;;3.70;;
10596;SDS011;5346;48.766;8.674;2024-01-25T03:16:00;19.03;;;3.77;;
10596;SDS011;5346;48.766;8.674;2024-01-25T03:18:35;21.63;;;4.27;;
10596;SDS011;5346;48.766;8.674;2024-01-25T03:21:09;25.00;;;4.20;;
10596;SDS011;5346;48.766;8.674;2024-01-25T03:23:44;23.33;;;4.07;;
10596;SDS011;5346;48.766;8.674;2024-01-25T03:26:18;16.30;;;3.80;;
10596;SDS011;5346;48.766;8.674;2024-01-25T03:28:53;26.77;;;4.53;;
10596;SDS011;5346;48.766;8.674;2024-01-25T03:31:28;18.60;;;3.77;;
10596;SDS011;5346;48.766;8.674;2024-01-25T03:34:02;19.73;;;3.50;;
10596;SDS011;5346;48.766;8.674;2024-01-25T03:36:37;23.50;;;4.37;;
10596;SDS011;5346;48.766;8.674;2024-01-25T03:39:14;23.57;;;4.13;;
10596;SDS011;5346;48.766;8.674;2024-01-25T03:41:42;19.90;;;3.87;;
10596;SDS011;5346;48.766;8.674;2024-01-25T03:44:16;27.23;;;4.47;;
10596;SDS011;5346;48.766;8.674;2024-01-25T03:46:43;30.03;;;4.10;;
10596;SDS011;5346;48.766;8.674;2024-01-25T03:49:18;30.57;;;4.23;;
10596;SDS011;5346;48.766;8.674;2024-01-25T03:51:46;22.80;;;3.70;;
10596;SDS011;5346;48.766;8.674;2024-01-25T03:54:27;28.30;;;4.90;;
10596;SDS011;5346;48.766;8.674;2024-01-25T03:56:55;17.80;;;5.00;;
10596;SDS011;5346;48.766;8.674;2024-01-25T03:59:29;25.40;;;4.37;;
10596;SDS011;5346;48.766;8.674;2024-01-25T04:02:02;20.03;;;3.90;;
10596;SDS011;5346;48.766;8.674;2024-01-25T04:04:37;19.70;;;4.17;;
10596;SDS011;5346;48.766;8.674;2024-01-25T04:07:06;24.00;;;4.10;;
10596;SDS011;5346;48.766;8.674;2024-01-25T04:09:34;23.07;;;4.57;;
10596;SDS011;5346;48.766;8.674;2024-01-25T04:12:09;18.50;;;4.03;;
10596;SDS011;5346;48.766;8.674;2024-01-25T04:14:39;22.30;;;4.60;;
10596;SDS011;5346;48.766;8.674;2024-01-25T04:17:13;23.03;;;4.40;;
10596;SDS011;5346;48.766;8.674;2024-01-25T04:19:42;22.23;;;4.33;;
10596;SDS011;5346;48.766;8.674;2024-01-25T04:22:18;26.13;;;4.73;;
10596;SDS011;5346;48.766;8.674;2024-01-25T04:24:52;20.33;;;3.63;;
10596;SDS011;5346;48.766;8.674;2024-01-25T04:27:26;26.70;;;4.40;;
10596;SDS011;5346;48.766;8.674;2024-01-25T04:29:54;16.83;;;3.80;;
10596;SDS011;5346;48.766;8.674;2024-01-25T04:32:28;21.93;;;4.80;;
10596;SDS011;5346;48.766;8.674;2024-01-25T04:34:56;23.67;;;5.00;;
10596;SDS011;5346;48.766;8.674;2024-01-25T04:37:30;19.17;;;3.80;;
10596;SDS011;5346;48.766;8.674;2024-01-25T04:40:06;26.87;;;4.47;;
10596;SDS011;5346;48.766;8.674;2024-01-25T04:42:34;22.87;;;4.40;;
10596;SDS011;5346;48.766;8.674;2024-01-25T04:45:10;28.30;;;5.10;;
10596;SDS011;5346;48.766;8.674;2024-01-25T04:47:38;19.37;;;6.03;;
10596;SDS011;5346;48.766;8.674;2024-01-25T04:50:13;20.80;;;4.63;;
10596;SDS011;5346;48.766;8.674;2024-01-25T04:52:41;27.70;;;4.40;;
10596;SDS011;5346;48.766;8.674;2024-01-25T04:55:21;20.53;;;4.47;;
10596;SDS011;5346;48.766;8.674;2024-01-25T04:57:49;21.93;;;4.57;;
10596;SDS011;5346;48.766;8.674;2024-01-25T05:00:26;25.70;;;4.80;;
10596;SDS011;5346;48.766;8.674;2024-01-25T05:02:53;22.77;;;4.13;;
10596;SDS011;5346;48.766;8.674;2024-01-25T05:05:21;18.37;;;3.77;;
10596;SDS011;5346;48.766;8.674;2024-01-25T05:08:02;18.00;;;4.20;;
10596;SDS011;5346;48.766;8.674;2024-01-25T05:10:37;21.53;;;5.83;;
10596;SDS011;5346;48.766;8.674;2024-01-25T05:13:11;24.87;;;4.37;;
10596;SDS011;5346;48.766;8.674;2024-01-25T05:15:46;27.40;;;4.57;;
10596;SDS011;5346;48.766;8.674;2024-01-25T05:18:13;26.07;;;4.97;;
10596;SDS011;5346;48.766;8.674;2024-01-25T05:20:42;18.97;;;4.10;;
10596;SDS011;5346;48.766;8.674;2024-01-25T05:23:16;20.23;;;3.90;;
10596;SDS011;5346;48.766;8.674;2024-01-25T05:25:44;20.03;;;4.00;;
10596;SDS011;5346;48.766;8.674;2024-01-25T05:28:18;25.13;;;4.67;;
10596;SDS011;5346;48.766;8.674;2024-01-25T05:30:53;18.27;;;4.10;;
10596;SDS011;5346;48.766;8.674;2024-01-25T05:33:20;25.80;;;4.90;;
10596;SDS011;5346;48.766;8.674;2024-01-25T05:35:55;26.47;;;4.33;;
10596;SDS011;5346;48.766;8.674;2024-01-25T05:38:22;25.20;;;4.27;;
10596;SDS011;5346;48.766;8.674;2024-01-25T05:40:56;22.10;;;4.47;;
10596;SDS011;5346;48.766;8.674;2024-01-25T05:43:32;22.73;;;4.40;;
10596;SDS011;5346;48.766;8.674;2024-01-25T05:46:06;23.17;;;4.20;;
10596;SDS011;5346;48.766;8.674;2024-01-25T05:48:43;22.43;;;4.70;;
10596;SDS011;5346;48.766;8.674;2024-01-25T05:51:30;27.07;;;4.20;;
10596;SDS011;5346;48.766;8.674;2024-01-25T05:54:05;26.93;;;5.60;;
10596;SDS011;5346;48.766;8.674;2024-01-25T05:56:46;22.77;;;4.73;;
10596;SDS011;5346;48.766;8.674;2024-01-25T05:59:13;22.33;;;4.00;;
10596;SDS011;5346;48.766;8.674;2024-01-25T06:01:48;27.23;;;5.20;;
10596;SDS011;5346;48.766;8.674;2024-01-25T06:04:22;26.00;;;4.77;;
10596;SDS011;5346;48.766;8.674;2024-01-25T06:06:56;20.67;;;4.43;;
10596;SDS011;5346;48.766;8.674;2024-01-25T06:09:30;23.17;;;4.77;;
10596;SDS011;5346;48.766;8.674;2024-01-25T06:11:58;22.97;;;4.77;;
10596;SDS011;5346;48.766;8.674;2024-01-25T06:14:33;30.10;;;5.03;;
10596;SDS011;5346;48.766;8.674;2024-01-25T06:17:00;21.83;;;4.13;;
10596;SDS011;5346;48.766;8.674;2024-01-25T06:19:35;19.20;;;4.87;;
10596;SDS011;5346;48.766;8.674;2024-01-25T06:22:03;24.07;;;4.47;;
10596;SDS011;5346;48.766;8.674;2024-01-25T06:24:37;26.30;;;5.37;;
10596;SDS011;5346;48.766;8.674;2024-01-25T06:27:11;20.73;;;4.60;;
10596;SDS011;5346;48.766;8.674;2024-01-25T06:29:38;27.33;;;4.53;;
10596;SDS011;5346;48.766;8.674;2024-01-25T06:32:14;20.93;;;4.30;;
10596;SDS011;5346;48.766;8.674;2024-01-25T06:34:51;27.83;;;5.13;;
10596;SDS011;5346;48.766;8.674;2024-01-25T06:37:26;19.27;;;4.23;;
10596;SDS011;5346;48.766;8.674;2024-01-25T06:39:54;23.57;;;4.63;;
10596;SDS011;5346;48.766;8.674;2024-01-25T06:42:28;16.97;;;4.00;;
10596;SDS011;5346;48.766;8.674;2024-01-25T06:45:02;25.40;;;4.40;;
10596;SDS011;5346;48.766;8.674;2024-01-25T06:47:37;24.07;;;4.27;;
10596;SDS011;5346;48.766;8.674;2024-01-25T06:50:04;23.83;;;4.90;;
10596;SDS011;5346;48.766;8.674;2024-01-25T06:52:39;24.47;;;4.53;;
10596;SDS011;5346;48.766;8.674;2024-01-25T06:55:20;22.00;;;4.87;;
10596;SDS011;5346;48.766;8.674;2024-01-25T06:57:55;28.30;;;5.00;;
10596;SDS011;5346;48.766;8.674;2024-01-25T07:00:31;21.90;;;4.67;;
10596;SDS011;5346;48.766;8.674;2024-01-25T07:02:59;30.77;;;4.83;;
10596;SDS011;5346;48.766;8.674;2024-01-25T07:05:34;25.27;;;4.90;;
10596;SDS011;5346;48.766;8.674;2024-01-25T07:08:09;23.87;;;4.50;;
10596;SDS011;5346;48.766;8.674;2024-01-25T07:10:46;23.77;;;4.93;;
10596;SDS011;5346;48.766;8.674;2024-01-25T07:13:21;23.43;;;4.47;;
10596;SDS011;5346;48.766;8.674;2024-01-25T07:15:49;27.43;;;5.40;;
10596;SDS011;5346;48.766;8.674;2024-01-25T07:18:23;27.73;;;5.37;;
10596;SDS011;5346;48.766;8.674;2024-01-25T07:20:58;28.90;;;6.30;;
10596;SDS011;5346;48.766;8.674;2024-01-25T07:23:26;25.73;;;5.37;;
10596;SDS011;5346;48.766;8.674;2024-01-25T07:26:09;18.73;;;4.73;;
10596;SDS011;5346;48.766;8.674;2024-01-25T07:28:43;26.70;;;4.83;;
10596;SDS011;5346;48.766;8.674;2024-01-25T07:31:16;32.57;;;5.17;;
10596;SDS011;5346;48.766;8.674;2024-01-25T07:33:44;21.20;;;4.83;;
10596;SDS011;5346;48.766;8.674;2024-01-25T07:36:19;27.20;;;5.50;;
10596;SDS011;5346;48.766;8.674;2024-01-25T07:38:49;27.27;;;5.07;;
10596;SDS011;5346;48.766;8.674;2024-01-25T07:41:24;30.13;;;4.90;;
10596;SDS011;5346;48.766;8.674;2024-01-25T07:43:59;23.53;;;4.80;;
10596;SDS011;5346;48.766;8.674;2024-01-25T07:46:33;22.90;;;5.20;;
10596;SDS011;5346;48.766;8.674;2024-01-25T07:49:00;22.87;;;4.33;;
10596;SDS011;5346;48.766;8.674;2024-01-25T07:51:35;31.87;;;4.77;;
10596;SDS011;5346;48.766;8.674;2024-01-25T07:54:09;23.33;;;4.93;;
10596;SDS011;5346;48.766;8.674;2024-01-25T07:56:50;30.20;;;5.27;;
10596;SDS011;5346;48.766;8.674;2024-01-25T07:59:24;23.30;;;4.60;;
10596;SDS011;5346;48.766;8.674;2024-01-25T08:01:59;28.47;;;4.47;;
10596;SDS011;5346;48.766;8.674;2024-01-25T08:04:33;23.23;;;4.27;;
10596;SDS011;5346;48.766;8.674;2024-01-25T08:07:01;26.27;;;5.13;;
10596;SDS011;5346;48.766;8.674;2024-01-25T08:09:36;22.00;;;4.13;;
10596;SDS011;5346;48.766;8.674;2024-01-25T08:12:06;28.07;;;4.33;;
10596;SDS011;5346;48.766;8.674;2024-01-25T08:14:40;20.17;;;4.83;;
10596;SDS011;5346;48.766;8.674;2024-01-25T08:17:09;27.90;;;4.80;;
10596;SDS011;5346;48.766;8.674;2024-01-25T08:19:44;24.87;;;4.17;;
10596;SDS011;5346;48.766;8.674;2024-01-25T08:22:19;22.63;;;4.60;;
10596;SDS011;5346;48.766;8.674;2024-01-25T08:24:53;17.93;;;4.10;;
10596;SDS011;5346;48.766;8.674;2024-01-25T08:27:27;16.97;;;4.20;;
10596;SDS011;5346;48.766;8.674;2024-01-25T08:30:02;18.90;;;3.70;;
10596;SDS011;5346;48.766;8.674;2024-01-25T08:32:37;21.70;;;3.70;;
10596;SDS011;5346;48.766;8.674;2024-01-25T08:35:04;21.23;;;4.10;;
10596;SDS011;5346;48.766;8.674;2024-01-25T08:37:39;20.33;;;4.07;;
10596;SDS011;5346;48.766;8.674;2024-01-25T08:40:07;19.40;;;4.27;;
10596;SDS011;5346;48.766;8.674;2024-01-25T08:42:43;24.57;;;3.70;;
10596;SDS011;5346;48.766;8.674;2024-01-25T08:45:12;16.73;;;4.00;;
10596;SDS011;5346;48.766;8.674;2024-01-25T08:47:47;18.75;;;4.28;;
10596;SDS011;5346;48.766;8.674;2024-01-25T08:50:15;14.23;;;4.00;;
10596;SDS011;5346;48.766;8.674;2024-01-25T08:52:43;18.17;;;3.67;;
10596;SDS011;5346;48.766;8.674;2024-01-25T08:55:24;24.55;;;5.57;;
10596;SDS011;5346;48.766;8.674;2024-01-25T08:58:06;20.25;;;4.72;;
10596;SDS011;5346;48.766;8.674;2024-01-25T09:00:40;27.75;;;4.50;;
10596;SDS011;5346;48.766;8.674;2024-01-25T09:03:16;22.90;;;4.28;;
10596;SDS011;5346;48.766;8.674;2024-01-25T09:05:44;15.85;;;3.72;;
10596;SDS011;5346;48.766;8.674;2024-01-25T09:08:19;17.90;;;3.83;;
10596;SDS011;5346;48.766;8.674;2024-01-25T09:10:47;17.88;;;3.72;;
10596;SDS011;5346;48.766;8.674;2024-01-25T09:13:24;14.10;;;3.70;;
10596;SDS011;5346;48.766;8.674;2024-01-25T09:15:51;16.35;;;4.57;;
10596;SDS011;5346;48.766;8.674;2024-01-25T09:18:19;17.27;;;3.78;;
10596;SDS011;5346;48.766;8.674;2024-01-25T09:20:54;17.10;;;3.88;;
10596;SDS011;5346;48.766;8.674;2024-01-25T09:23:22;18.40;;;3.90;;
10596;SDS011;5346;48.766;8.674;2024-01-25T09:25:56;16.73;;;3.85;;
10596;SDS011;5346;48.766;8.674;2024-01-25T09:28:23;12.45;;;3.53;;
10596;SDS011;5346;48.766;8.674;2024-01-25T09:30:58;20.40;;;3.63;;
10596;SDS011;5346;48.766;8.674;2024-01-25T09:33:26;14.73;;;3.17;;
10596;SDS011;5346;48.766;8.674;2024-01-25T09:36:01;20.85;;;4.20;;
10596;SDS011;5346;48.766;8.674;2024-01-25T09:38:30;17.85;;;4.05;;
10596;SDS011;5346;48.766;8.674;2024-01-25T09:41:04;16.10;;;3.28;;
10596;SDS011;5346;48.766;8.674;2024-01-25T09:43:31;13.98;;;2.97;;
10596;SDS011;5346;48.766;8.674;2024-01-25T09:46:06;15.15;;;3.53;;
10596;SDS011;5346;48.766;8.674;2024-01-25T09:48:35;17.17;;;3.90;;
10596;SDS011;5346;48.766;8.674;2024-01-25T09:51:10;10.77;;;2.75;;
10596;SDS011;5346;48.766;8.674;2024-01-25T09:53:39;21.35;;;3.70;;
10596;SDS011;5346;48.766;8.674;2024-01-25T09:56:15;15.82;;;3.33;;
10596;SDS011;5346;48.766;8.674;2024-01-25T09:58:55;13.07;;;3.50;;
10596;SDS011;5346;48.766;8.674;2024-01-25T10:01:30;11.02;;;2.92;;
10596;SDS011;5346;48.766;8.674;2024-01-25T10:03:57;14.73;;;2.90;;
10596;SDS011;5346;48.766;8.674;2024-01-25T10:06:33;17.45;;;3.92;;
10596;SDS011;5346;48.766;8.674;2024-01-25T10:09:07;20.40;;;3.47;;
10596;SDS011;5346;48.766;8.674;2024-01-25T10:11:43;13.30;;;3.78;;
10596;SDS011;5346;48.766;8.674;2024-01-25T10:14:35;15.38;;;3.20;;
10596;SDS011;5346;48.766;8.674;2024-01-25T10:17:03;13.13;;;2.80;;
10596;SDS011;5346;48.766;8.674;2024-01-25T10:19:37;16.42;;;3.72;;
10596;SDS011;5346;48.766;8.674;2024-01-25T10:22:15;16.65;;;3.17;;
10596;SDS011;5346;48.766;8.674;2024-01-25T10:24:43;13.77;;;3.30;;
10596;SDS011;5346;48.766;8.674;2024-01-25T10:27:11;13.90;;;3.08;;
10596;SDS011;5346;48.766;8.674;2024-01-25T10:29:46;13.18;;;2.92;;
10596;SDS011;5346;48.766;8.674;2024-01-25T10:32:14;10.75;;;3.15;;
10596;SDS011;5346;48.766;8.674;2024-01-25T10:34:43;13.85;;;3.33;;
10596;SDS011;5346;48.766;8.674;2024-01-25T10:37:20;12.43;;;3.20;;
10596;SDS011;5346;48.766;8.674;2024-01-25T10:39:55;10.63;;;3.10;;
10596;SDS011;5346;48.766;8.674;2024-01-25T10:42:30;12.27;;;3.20;;
10596;SDS011;5346;48.766;8.674;2024-01-25T10:44:58;10.18;;;3.20;;
10596;SDS011;5346;48.766;8.674;2024-01-25T10:47:32;10.60;;;2.72;;
10596;SDS011;5346;48.766;8.674;2024-01-25T10:50:02;9.07;;;2.72;;
10596;SDS011;5346;48.766;8.674;2024-01-25T10:52:39;12.60;;;3.13;;
10596;SDS011;5346;48.766;8.674;2024-01-25T10:55:20;11.60;;;2.90;;
10596;SDS011;5346;48.766;8.674;2024-01-25T10:57:55;10.65;;;2.70;;
10596;SDS011;5346;48.766;8.674;2024-01-25T11:00:31;11.77;;;3.22;;
10596;SDS011;5346;48.766;8.674;2024-01-25T11:03:06;10.50;;;3.15;;
10596;SDS011;5346;48.766;8.674;2024-01-25T11:05:34;14.40;;;3.05;;
10596;SDS011;5346;48.766;8.674;2024-01-25T11:08:03;11.23;;;3.30;;
10596;SDS011;5346;48.766;8.674;2024-01-25T11:10:37;12.50;;;3.20;;
10596;SDS011;5346;48.766;8.674;2024-01-25T11:13:13;8.52;;;2.60;;
10596;SDS011;5346;48.766;8.674;2024-01-25T11:15:41;17.48;;;2.88;;
10596;SDS011;5346;48.766;8.674;2024-01-25T11:18:16;13.40;;;3.03;;
10596;SDS011;5346;48.766;8.674;2024-01-25T11:20:46;11.68;;;2.30;;
10596;SDS011;5346;48.766;8.674;2024-01-25T11:23:22;10.57;;;2.67;;
10596;SDS011;5346;48.766;8.674;2024-01-25T11:25:57;8.80;;;3.08;;
10596;SDS011;5346;48.766;8.674;2024-01-25T11:28:32;10.68;;;2.50;;
10596;SDS011;5346;48.766;8.674;2024-01-25T11:30:59;10.73;;;2.30;;
10596;SDS011;5346;48.766;8.674;2024-01-25T11:33:36;10.73;;;2.67;;
10596;SDS011;5346;48.766;8.674;2024-01-25T11:36:05;12.40;;;2.97;;
10596;SDS011;5346;48.766;8.674;2024-01-25T11:38:40;8.40;;;2.60;;
10596;SDS011;5346;48.766;8.674;2024-01-25T11:41:07;10.18;;;2.67;;
10596;SDS011;5346;48.766;8.674;2024-01-25T11:43:42;8.65;;;2.20;;
10596;SDS011;5346;48.766;8.674;2024-01-25T11:46:16;9.05;;;3.00;;
10596;SDS011;5346;48.766;8.674;2024-01-25T11:48:44;9.25;;;2.13;;
10596;SDS011;5346;48.766;8.674;2024-01-25T11:51:19;11.75;;;2.50;;
10596;SDS011;5346;48.766;8.674;2024-01-25T11:53:53;5.82;;;1.95;;
10596;SDS011;5346;48.766;8.674;2024-01-25T11:56:33;8.80;;;2.13;;
10596;SDS011;5346;48.766;8.674;2024-01-25T11:59:12;10.35;;;2.15;;
10596;SDS011;5346;48.766;8.674;2024-01-25T12:01:40;8.95;;;2.20;;
10596;SDS011;5346;48.766;8.674;2024-01-25T12:04:08;9.43;;;2.05;;
10596;SDS011;5346;48.766;8.674;2024-01-25T12:06:43;6.47;;;1.92;;
10596;SDS011;5346;48.766;8.674;2024-01-25T12:09:17;10.60;;;2.38;;
10596;SDS011;5346;48.766;8.674;2024-01-25T12:11:51;6.60;;;1.80;;
10596;SDS011;5346;48.766;8.674;2024-01-25T12:14:25;9.75;;;2.20;;
10596;SDS011;5346;48.766;8.674;2024-01-25T12:16:57;8.30;;;2.42;;
10596;SDS011;5346;48.766;8.674;2024-01-25T12:19:31;7.18;;;1.75;;
10596;SDS011;5346;48.766;8.674;2024-01-25T12:22:06;4.65;;;1.38;;
10596;SDS011;5346;48.766;8.674;2024-01-25T12:24:41;6.65;;;2.08;;
10596;SDS011;5346;48.766;8.674;2024-01-25T12:27:26;8.25;;;2.00;;
10596;SDS011;5346;48.766;8.674;2024-01-25T12:29:54;9.35;;;2.05;;
10596;SDS011;5346;48.766;8.674;2024-01-25T12:32:28;8.00;;;1.90;;
10596;SDS011;5346;48.766;8.674;2024-01-25T12:35:02;6.93;;;1.98;;
10596;SDS011;5346;48.766;8.674;2024-01-25T12:37:33;6.20;;;1.88;;
10596;SDS011;5346;48.766;8.674;2024-01-25T12:40:08;8.73;;;2.50;;
10596;SDS011;5346;48.766;8.674;2024-01-25T12:42:42;8.30;;;2.15;;
10596;SDS011;5346;48.766;8.674;2024-01-25T12:45:10;5.70;;;1.83;;
10596;SDS011;5346;48.766;8.674;2024-01-25T12:47:45;4.68;;;1.55;;
10596;SDS011;5346;48.766;8.674;2024-01-25T12:50:13;6.00;;;1.88;;
10596;SDS011;5346;48.766;8.674;2024-01-25T12:52:47;3.92;;;1.60;;
10596;SDS011;5346;48.766;8.674;2024-01-25T12:55:16;5.55;;;2.17;;
10596;SDS011;5346;48.766;8.674;2024-01-25T12:57:57;8.15;;;1.98;;
10596;SDS011;5346;48.766;8.674;2024-01-25T13:00:32;7.68;;;2.00;;
10596;SDS011;5346;48.766;8.674;2024-01-25T13:03:07;5.40;;;1.65;;
10596;SDS011;5346;48.766;8.674;2024-01-25T13:05:42;6.72;;;1.88;;
10596;SDS011;5346;48.766;8.674;2024-01-25T13:08:11;5.55;;;2.00;;
10596;SDS011;5346;48.766;8.674;2024-01-25T13:10:46;5.88;;;1.90;;
10596;SDS011;5346;48.766;8.674;2024-01-25T13:13:20;5.80;;;1.77;;
10596;SDS011;5346;48.766;8.674;2024-01-25T13:15:55;5.00;;;1.60;;
10596;SDS011;5346;48.766;8.674;2024-01-25T13:18:24;5.78;;;1.80;;
10596;SDS011;5346;48.766;8.674;2024-01-25T13:20:52;8.82;;;2.08;;
10596;SDS011;5346;48.766;8.674;2024-01-25T13:23:27;6.25;;;1.63;;
10596;SDS011;5346;48.766;8.674;2024-01-25T13:26:05;6.22;;;2.00;;
10596;SDS011;5346;48.766;8.674;2024-01-25T13:28:40;8.55;;;2.22;;
10596;SDS011;5346;48.766;8.674;2024-01-25T13:31:14;6.82;;;1.77;;
10596;SDS011;5346;48.766;8.674;2024-01-25T13:33:41;8.10;;;1.80;;
10596;SDS011;5346;48.766;8.674;2024-01-25T13:36:16;5.78;;;1.70;;
10596;SDS011;5346;48.766;8.674;2024-01-25T13:38:44;7.13;;;1.77;;
10596;SDS011;5346;48.766;8.674;2024-01-25T13:41:18;6.22;;;1.92;;
10596;SDS011;5346;48.766;8.674;2024-01-25T13:43:45;5.30;;;1.63;;
10596;SDS011;5346;48.766;8.674;2024-01-25T13:46:13;6.78;;;2.00;;
10596;SDS011;5346;48.766;8.674;2024-01-25T13:48:49;5.82;;;1.85;;
10596;SDS011;5346;48.766;8.674;2024-01-25T13:51:23;6.50;;;1.70;;
10596;SDS011;5346;48.766;8.674;2024-01-25T13:53:57;6.05;;;1.70;;
10596;SDS011;5346;48.766;8.674;2024-01-25T13:56:32;6.85;;;1.77;;
10596;SDS011;5346;48.766;8.674;2024-01-25T13:59:06;10.43;;;1.98;;
10596;SDS011;5346;48.766;8.674;2024-01-25T14:01:40;7.70;;;2.17;;
10596;SDS011;5346;48.766;8.674;2024-01-25T14:04:07;4.03;;;1.55;;
10596;SDS011;5346;48.766;8.674;2024-01-25T14:06:42;5.32;;;1.90;;
10596;SDS011;5346;48.766;8.674;2024-01-25T14:09:11;7.45;;;2.05;;
10596;SDS011;5346;48.766;8.674;2024-01-25T14:11:45;8.00;;;1.55;;
10596;SDS011;5346;48.766;8.674;2024-01-25T14:14:12;6.65;;;1.77;;
10596;SDS011;5346;48.766;8.674;2024-01-25T14:16:47;8.73;;;1.75;;
10596;SDS011;5346;48.766;8.674;2024-01-25T14:19:15;7.63;;;1.90;;
10596;SDS011;5346;48.766;8.674;2024-01-25T14:21:50;8.07;;;1.70;;
10596;SDS011;5346;48.766;8.674;2024-01-25T14:24:38;5.28;;;1.60;;
10596;SDS011;5346;48.766;8.674;2024-01-25T14:27:12;6.47;;;1.55;;
10596;SDS011;5346;48.766;8.674;2024-01-25T14:29:47;9.63;;;1.80;;
10596;SDS011;5346;48.766;8.674;2024-01-25T14:32:21;6.40;;;1.30;;
10596;SDS011;5346;48.766;8.674;2024-01-25T14:34:49;6.03;;;1.40;;
10596;SDS011;5346;48.766;8.674;2024-01-25T14:37:25;5.30;;;1.55;;
10596;SDS011;5346;48.766;8.674;2024-01-25T14:39:53;2.75;;;1.58;;
10596;SDS011;5346;48.766;8.674;2024-01-25T14:42:47;3.75;;;1.45;;
10596;SDS011;5346;48.766;8.674;2024-01-25T14:45:16;4.78;;;1.65;;
10596;SDS011;5346;48.766;8.674;2024-01-25T14:47:51;8.35;;;1.67;;
10596;SDS011;5346;48.766;8.674;2024-01-25T14:50:25;6.03;;;1.38;;
10596;SDS011;5346;48.766;8.674;2024-01-25T14:52:59;6.88;;;1.70;;
10596;SDS011;5346;48.766;8.674;2024-01-25T14:55:33;7.88;;;1.63;;
10596;SDS011;5346;48.766;8.674;2024-01-25T14:58:08;4.47;;;1.63;;
10596;SDS011;5346;48.766;8.674;2024-01-25T15:00:49;6.85;;;1.55;;
10596;SDS011;5346;48.766;8.674;2024-01-25T15:03:25;3.55;;;1.33;;
10596;SDS011;5346;48.766;8.674;2024-01-25T15:05:59;7.20;;;1.65;;
10596;SDS011;5346;48.766;8.674;2024-01-25T15:08:34;4.95;;;1.30;;
10596;SDS011;5346;48.766;8.674;2024-01-25T15:11:08;6.35;;;1.92;;
10596;SDS011;5346;48.766;8.674;2024-01-25T15:13:42;3.55;;;1.30;;
10596;SDS011;5346;48.766;8.674;2024-01-25T15:16:10;4.30;;;1.60;;
10596;SDS011;5346;48.766;8.674;2024-01-25T15:18:47;4.53;;;1.48;;
10596;SDS011;5346;48.766;8.674;2024-01-25T15:21:14;5.38;;;1.70;;
10596;SDS011;5346;48.766;8.674;2024-01-25T15:23:49;6.38;;;1.38;;